createdAt,value
2018-06-10T00:00:26.194Z,21.20
2018-06-10T00:02:54.548Z,20.90
2018-06-10T00:05:22.993Z,20.60
2018-06-10T00:07:51.447Z,21.50
2018-06-10T00:10:19.981Z,20.27
2018-06-10T00:12:48.375Z,22.27
2018-06-10T00:15:16.803Z,22.20
2018-06-10T00:17:45.228Z,22.10
2018-06-10T00:20:13.676Z,22.30
2018-06-10T00:22:42.081Z,20.10
2018-06-10T00:25:10.509Z,20.57
2018-06-10T00:27:38.863Z,20.93
2018-06-10T00:30:07.558Z,21.60
2018-06-10T00:32:35.998Z,21.73
2018-06-10T00:35:04.490Z,21.17
2018-06-10T00:37:32.830Z,21.50
2018-06-10T00:40:01.251Z,20.20
2018-06-10T00:42:29.639Z,21.60
2018-06-10T00:44:58.085Z,21.83
2018-06-10T00:47:26.487Z,20.10
2018-06-10T00:49:54.891Z,21.17
2018-06-10T00:52:23.230Z,21.00
2018-06-10T00:54:51.736Z,19.70
2018-06-10T00:57:20.045Z,20.10
2018-06-10T00:59:48.544Z,20.30
2018-06-10T01:02:16.874Z,20.03
2018-06-10T01:04:45.287Z,20.93
2018-06-10T01:07:13.742Z,20.77
2018-06-10T01:09:42.124Z,20.40
2018-06-10T01:12:10.509Z,21.27
2018-06-10T01:14:38.879Z,20.70
2018-06-10T01:17:07.312Z,20.30
2018-06-10T01:19:36.876Z,19.63
2018-06-10T01:22:05.239Z,21.93
2018-06-10T01:24:33.615Z,19.20
2018-06-10T01:27:02.030Z,18.90
2018-06-10T01:29:30.925Z,21.10
2018-06-10T01:32:00.201Z,20.37
2018-06-10T01:34:28.578Z,21.40
2018-06-10T01:36:56.928Z,21.43
2018-06-10T01:39:25.291Z,19.83
2018-06-10T01:41:53.761Z,20.60
2018-06-10T01:44:22.221Z,23.33
2018-06-10T01:46:50.585Z,20.60
2018-06-10T01:49:18.924Z,21.10
2018-06-10T01:51:47.474Z,23.20
2018-06-10T01:54:15.874Z,20.50
2018-06-10T01:56:44.264Z,21.87
2018-06-10T01:59:12.637Z,22.17
2018-06-10T02:01:41.018Z,21.63
2018-06-10T02:04:09.494Z,21.87
2018-06-10T02:06:37.873Z,22.00
2018-06-10T02:09:06.707Z,22.53
2018-06-10T02:11:35.089Z,23.47
2018-06-10T02:14:03.468Z,23.90
2018-06-10T02:16:31.964Z,22.23
2018-06-10T02:19:00.322Z,24.47
2018-06-10T02:21:28.766Z,23.33
2018-06-10T02:23:57.174Z,23.20
2018-06-10T02:26:25.644Z,22.43
2018-06-10T02:28:54.232Z,23.50
2018-06-10T02:31:22.609Z,24.10
2018-06-10T02:33:50.958Z,22.53
2018-06-10T02:36:19.456Z,22.97
2018-06-10T02:38:47.887Z,23.80
2018-06-10T02:41:16.348Z,23.77
2018-06-10T02:43:44.675Z,23.17
2018-06-10T02:46:13.162Z,22.70
2018-06-10T02:48:41.586Z,22.83
2018-06-10T02:51:10.077Z,23.23
2018-06-10T02:53:38.514Z,22.57
2018-06-10T02:56:06.903Z,24.30
2018-06-10T02:58:35.322Z,21.93
2018-06-10T03:01:03.811Z,23.10
2018-06-10T03:03:32.322Z,22.10
2018-06-10T03:06:00.689Z,22.10
2018-06-10T03:08:29.131Z,22.53
2018-06-10T03:10:57.526Z,22.50
2018-06-10T03:13:25.963Z,22.10
2018-06-10T03:15:54.489Z,22.03
2018-06-10T03:18:22.973Z,21.10
2018-06-10T03:20:51.286Z,21.30
2018-06-10T03:23:19.696Z,20.93
2018-06-10T03:25:48.122Z,21.70
2018-06-10T03:28:16.542Z,22.27
2018-06-10T03:30:44.954Z,24.27
2018-06-10T03:33:13.306Z,23.33
2018-06-10T03:35:42.574Z,21.80
2018-06-10T03:38:10.918Z,22.47
2018-06-10T03:40:39.286Z,22.63
2018-06-10T03:43:07.692Z,22.40
2018-06-10T03:45:36.050Z,21.87
2018-06-10T03:48:04.512Z,20.83
2018-06-10T03:50:32.917Z,21.00
2018-06-10T03:53:01.288Z,21.47
2018-06-10T03:55:29.696Z,20.40
2018-06-10T03:57:58.106Z,20.70
2018-06-10T04:00:26.398Z,21.50
2018-06-10T04:02:54.761Z,21.10
2018-06-10T04:05:23.214Z,22.20
2018-06-10T04:07:51.604Z,21.57
2018-06-10T04:10:20.626Z,23.10
2018-06-10T04:12:49.069Z,22.43
2018-06-10T04:15:17.445Z,24.30
2018-06-10T04:17:45.829Z,23.93
2018-06-10T04:20:14.192Z,21.40
2018-06-10T04:22:42.524Z,21.30
2018-06-10T04:25:10.893Z,21.43
2018-06-10T04:27:39.334Z,21.60
2018-06-10T04:30:07.694Z,19.40
2018-06-10T04:32:36.171Z,20.30
2018-06-10T04:35:04.622Z,20.93
2018-06-10T04:37:33.013Z,21.87
2018-06-10T04:40:01.456Z,18.87
2018-06-10T04:42:29.839Z,20.97
2018-06-10T04:44:58.263Z,20.83
2018-06-10T04:47:28.761Z,21.13
2018-06-10T04:49:57.767Z,21.53
2018-06-10T04:52:26.242Z,20.90
2018-06-10T04:54:54.613Z,20.07
2018-06-10T04:57:23.014Z,20.40
2018-06-10T04:59:51.372Z,19.40
2018-06-10T05:02:19.868Z,18.80
2018-06-10T05:04:48.264Z,18.63
2018-06-10T05:07:16.720Z,17.63
2018-06-10T05:09:45.161Z,17.00
2018-06-10T05:12:13.581Z,17.07
2018-06-10T05:14:42.014Z,17.00
2018-06-10T05:17:10.462Z,17.40
2018-06-10T05:19:39.019Z,17.63
2018-06-10T05:22:07.332Z,17.07
2018-06-10T05:24:35.753Z,17.67
2018-06-10T05:27:04.110Z,17.90
2018-06-10T05:29:32.568Z,15.97
2018-06-10T05:32:00.941Z,16.50
2018-06-10T05:34:29.317Z,16.37
2018-06-10T05:36:57.629Z,17.87
2018-06-10T05:39:25.999Z,15.07
2018-06-10T05:41:54.357Z,16.70
2018-06-10T05:44:23.357Z,18.30
2018-06-10T05:46:51.773Z,18.80
2018-06-10T05:49:20.243Z,18.43
2018-06-10T05:51:48.629Z,18.73
2018-06-10T05:54:16.994Z,18.23
2018-06-10T05:56:45.394Z,17.70
2018-06-10T05:59:13.892Z,19.10
2018-06-10T06:01:42.239Z,18.40
2018-06-10T06:04:10.662Z,18.87
2018-06-10T06:06:39.068Z,19.27
2018-06-10T06:09:07.876Z,19.00
2018-06-10T06:11:37.342Z,19.40
2018-06-10T06:14:05.813Z,18.80
2018-06-10T06:16:34.311Z,21.60
2018-06-10T06:19:02.751Z,19.70
2018-06-10T06:21:31.140Z,19.27
2018-06-10T06:23:59.613Z,21.33
2018-06-10T06:26:27.994Z,20.73
2018-06-10T06:28:56.380Z,20.13
2018-06-10T06:31:24.747Z,18.80
2018-06-10T06:33:53.129Z,17.33
2018-06-10T06:36:21.548Z,17.63
2018-06-10T06:38:50.032Z,17.30
2018-06-10T06:41:18.427Z,19.03
2018-06-10T06:43:47.071Z,17.70
2018-06-10T06:46:15.567Z,18.20
2018-06-10T06:48:43.978Z,17.77
2018-06-10T06:51:12.400Z,18.10
2018-06-10T06:53:40.791Z,19.57
2018-06-10T06:56:09.229Z,17.90
2018-06-10T06:58:37.781Z,16.70
2018-06-10T07:01:06.248Z,18.73
2018-06-10T07:03:34.772Z,18.10
2018-06-10T07:06:03.265Z,18.73
2018-06-10T07:08:31.674Z,19.20
2018-06-10T07:11:00.088Z,17.80
2018-06-10T07:13:28.456Z,19.97
2018-06-10T07:15:57.154Z,19.10
2018-06-10T07:18:25.590Z,18.17
2018-06-10T07:20:54.036Z,17.40
2018-06-10T07:23:22.544Z,18.90
2018-06-10T07:25:50.886Z,18.43
2018-06-10T07:28:19.228Z,20.30
2018-06-10T07:30:47.601Z,20.67
2018-06-10T07:33:16.165Z,20.97
2018-06-10T07:35:44.696Z,21.60
2018-06-10T07:38:13.135Z,21.10
2018-06-10T07:40:41.966Z,21.23
2018-06-10T07:43:10.518Z,23.00
2018-06-10T07:45:39.007Z,22.30
2018-06-10T07:48:07.477Z,21.07
2018-06-10T07:50:35.819Z,23.93
2018-06-10T07:53:04.403Z,22.33
2018-06-10T07:55:32.824Z,22.60
2018-06-10T07:58:01.246Z,21.70
2018-06-10T08:00:29.569Z,21.80
2018-06-10T08:02:58.043Z,22.80
2018-06-10T08:05:26.559Z,21.00
2018-06-10T08:07:55.019Z,21.00
2018-06-10T08:10:23.411Z,20.00
2018-06-10T08:12:51.850Z,22.33
2018-06-10T08:15:20.183Z,22.20
2018-06-10T08:17:48.669Z,20.40
2018-06-10T08:20:17.020Z,20.40
2018-06-10T08:22:45.584Z,20.73
2018-06-10T08:25:14.163Z,21.10
2018-06-10T08:27:42.712Z,21.50
2018-06-10T08:30:11.118Z,20.50
2018-06-10T08:32:39.508Z,20.43
2018-06-10T08:35:07.942Z,20.23
2018-06-10T08:37:36.324Z,20.60
2018-06-10T08:40:04.814Z,18.53
2018-06-10T08:42:33.250Z,18.83
2018-06-10T08:45:01.767Z,19.03
2018-06-10T08:47:30.319Z,19.30
2018-06-10T08:49:58.805Z,17.93
2018-06-10T08:52:27.209Z,19.10
2018-06-10T08:54:55.582Z,17.67
2018-06-10T08:57:24.054Z,19.17
2018-06-10T08:59:52.448Z,18.60
2018-06-10T09:02:20.893Z,18.90
2018-06-10T09:04:49.410Z,20.50
2018-06-10T09:07:17.856Z,19.60
2018-06-10T09:09:46.275Z,18.77
2018-06-10T09:12:14.720Z,21.07
2018-06-10T09:14:43.203Z,22.13
2018-06-10T09:17:11.584Z,21.83
2018-06-10T09:19:39.948Z,22.73
2018-06-10T09:22:08.387Z,19.60
2018-06-10T09:24:36.947Z,20.80
2018-06-10T09:27:05.571Z,20.87
2018-06-10T09:29:34.027Z,20.90
2018-06-10T09:32:02.494Z,20.40
2018-06-10T09:34:31.064Z,19.97
2018-06-10T09:36:59.488Z,19.93
2018-06-10T09:39:27.856Z,21.97
2018-06-10T09:41:56.436Z,21.03
2018-06-10T09:44:24.879Z,20.10
2018-06-10T09:46:53.238Z,18.87
2018-06-10T09:49:21.865Z,18.33
2018-06-10T09:51:50.303Z,18.80
2018-06-10T09:54:19.308Z,20.60
2018-06-10T09:56:47.740Z,19.30
2018-06-10T09:59:16.228Z,22.40
2018-06-10T10:01:44.586Z,22.30
2018-06-10T10:04:13.065Z,21.60
2018-06-10T10:06:41.438Z,20.00
2018-06-10T10:09:09.857Z,18.73
2018-06-10T10:11:38.203Z,17.23
2018-06-10T10:14:06.598Z,16.90
2018-06-10T10:16:35.056Z,16.07
2018-06-10T10:19:03.523Z,13.03
2018-06-10T10:21:31.938Z,14.20
2018-06-10T10:24:00.363Z,14.07
2018-06-10T10:26:28.835Z,14.90
2018-06-10T10:28:57.185Z,14.37
2018-06-10T10:31:25.769Z,12.10
2018-06-10T10:33:54.086Z,10.07
2018-06-10T10:36:22.409Z,11.03
2018-06-10T10:38:50.770Z,9.50
2018-06-10T10:41:19.165Z,11.13
2018-06-10T10:43:47.556Z,9.03
2018-06-10T10:46:15.939Z,9.20
2018-06-10T10:48:44.300Z,9.53
2018-06-10T10:51:12.716Z,9.73
2018-06-10T10:53:41.328Z,9.10
2018-06-10T10:56:09.826Z,10.13
2018-06-10T10:58:38.147Z,9.33
2018-06-10T11:01:07.057Z,9.50
2018-06-10T11:03:35.904Z,9.15
2018-06-10T11:06:04.346Z,10.18
2018-06-10T11:08:32.892Z,8.90
2018-06-10T11:11:01.220Z,9.60
2018-06-10T11:13:29.591Z,9.70
2018-06-10T11:15:58.026Z,10.03
2018-06-10T11:18:26.391Z,10.28
2018-06-10T11:20:54.801Z,9.43
2018-06-10T11:23:23.121Z,10.05
2018-06-10T11:25:51.559Z,10.08
2018-06-10T11:28:19.873Z,10.30
2018-06-10T11:30:48.255Z,9.70
2018-06-10T11:33:16.651Z,13.50
2018-06-10T11:35:44.708Z,10.23
2018-06-10T11:38:13.056Z,9.23
2018-06-10T11:40:41.539Z,10.68
2018-06-10T11:43:09.978Z,8.23
2018-06-10T11:45:38.394Z,6.72
2018-06-10T11:48:07.105Z,7.05
2018-06-10T11:50:35.646Z,7.25
2018-06-10T11:53:04.193Z,6.47
2018-06-10T11:55:32.573Z,6.22
2018-06-10T11:58:01.038Z,6.83
2018-06-10T12:00:29.376Z,6.40
2018-06-10T12:02:57.720Z,7.65
2018-06-10T12:05:26.156Z,7.20
2018-06-10T12:07:54.601Z,7.12
2018-06-10T12:10:23.028Z,6.80
2018-06-10T12:12:51.210Z,7.35
2018-06-10T12:15:19.615Z,7.33
2018-06-10T12:17:48.036Z,5.75
2018-06-10T12:20:16.410Z,6.53
2018-06-10T12:22:45.347Z,6.25
2018-06-10T12:25:13.572Z,6.22
2018-06-10T12:27:41.985Z,6.62
2018-06-10T12:30:10.350Z,6.03
2018-06-10T12:32:38.726Z,6.58
2018-06-10T12:35:07.050Z,5.95
2018-06-10T12:37:36.145Z,6.20
2018-06-10T12:40:07.972Z,5.35
2018-06-10T12:42:36.332Z,6.12
2018-06-10T12:45:04.848Z,5.97
2018-06-10T12:47:36.614Z,6.35
2018-06-10T12:50:05.240Z,6.17
2018-06-10T12:52:33.861Z,5.70
2018-06-10T12:55:02.390Z,5.78
2018-06-10T12:57:30.818Z,6.15
2018-06-10T12:59:58.920Z,6.83
2018-06-10T13:02:27.279Z,7.20
2018-06-10T13:04:55.819Z,6.97
2018-06-10T13:07:24.131Z,6.72
2018-06-10T13:09:52.500Z,6.90
2018-06-10T13:12:20.956Z,6.37
2018-06-10T13:14:49.368Z,6.78
2018-06-10T13:17:25.719Z,6.20
2018-06-10T13:19:54.147Z,6.47
2018-06-10T13:22:22.529Z,6.45
2018-06-10T13:24:50.989Z,6.75
2018-06-10T13:27:19.381Z,6.45
2018-06-10T13:29:47.843Z,6.62
2018-06-10T13:32:16.318Z,6.85
2018-06-10T13:34:44.723Z,6.53
2018-06-10T13:37:13.225Z,6.30
2018-06-10T13:39:41.608Z,6.28
2018-06-10T13:42:09.983Z,6.67
2018-06-10T13:44:38.477Z,6.22
2018-06-10T13:47:06.929Z,6.85
2018-06-10T13:49:35.362Z,6.58
2018-06-10T13:52:03.858Z,6.30
2018-06-10T13:54:32.361Z,7.20
2018-06-10T13:57:01.201Z,6.83
2018-06-10T13:59:29.640Z,6.65
2018-06-10T14:01:58.203Z,6.70
2018-06-10T14:04:27.412Z,6.80
2018-06-10T14:06:55.894Z,6.67
2018-06-10T14:09:24.327Z,6.78
2018-06-10T14:11:52.761Z,6.75
2018-06-10T14:14:21.127Z,6.37
2018-06-10T14:16:49.506Z,6.05
2018-06-10T14:19:17.902Z,6.75
2018-06-10T14:21:52.927Z,6.08
2018-06-10T14:24:21.436Z,6.30
2018-06-10T14:26:49.897Z,6.83
2018-06-10T14:29:18.277Z,6.28
2018-06-10T14:31:46.820Z,6.45
2018-06-10T14:34:15.256Z,7.12
2018-06-10T14:36:43.725Z,6.75
2018-06-10T14:39:12.072Z,6.72
2018-06-10T14:41:40.418Z,6.83
2018-06-10T14:44:08.843Z,7.08
2018-06-10T14:46:37.348Z,6.05
2018-06-10T14:49:06.738Z,6.35
2018-06-10T14:51:35.109Z,7.00
2018-06-10T14:54:03.659Z,6.00
2018-06-10T14:56:32.111Z,6.22
2018-06-10T14:59:00.501Z,6.28
2018-06-10T15:01:28.898Z,6.72
2018-06-10T15:03:57.369Z,6.20
2018-06-10T15:06:25.889Z,6.70
2018-06-10T15:08:54.268Z,6.58
2018-06-10T15:11:22.794Z,6.80
2018-06-10T15:13:51.269Z,5.90
2018-06-10T15:16:19.675Z,6.70
2018-06-10T15:18:48.115Z,6.75
2018-06-10T15:21:16.559Z,6.70
2018-06-10T15:23:45.089Z,6.83
2018-06-10T15:26:16.613Z,6.53
2018-06-10T15:28:45.185Z,6.47
2018-06-10T15:31:13.604Z,6.97
2018-06-10T15:33:41.986Z,7.08
2018-06-10T15:36:10.354Z,6.40
2018-06-10T15:38:38.749Z,6.45
2018-06-10T15:41:07.225Z,6.35
2018-06-10T15:43:35.763Z,6.45
2018-06-10T15:46:04.270Z,6.33
2018-06-10T15:48:32.696Z,6.65
2018-06-10T15:51:01.218Z,6.50
2018-06-10T15:53:29.640Z,6.03
2018-06-10T15:55:58.015Z,6.25
2018-06-10T15:58:26.344Z,6.55
2018-06-10T16:00:54.772Z,7.00
2018-06-10T16:03:23.115Z,6.92
2018-06-10T16:05:51.228Z,6.90
2018-06-10T16:08:19.555Z,6.55
2018-06-10T16:10:47.950Z,6.37
2018-06-10T16:13:16.287Z,6.72
2018-06-10T16:15:44.703Z,7.12
2018-06-10T16:18:13.023Z,6.67
2018-06-10T16:20:41.434Z,7.10
2018-06-10T16:23:09.916Z,8.00
2018-06-10T16:25:38.364Z,7.15
2018-06-10T16:28:07.194Z,6.20
2018-06-10T16:30:35.688Z,7.00
2018-06-10T16:33:04.186Z,7.40
2018-06-10T16:35:32.611Z,7.53
2018-06-10T16:38:01.065Z,7.10
2018-06-10T16:40:29.399Z,7.10
2018-06-10T16:42:57.819Z,7.65
2018-06-10T16:45:26.217Z,6.62
2018-06-10T16:47:54.702Z,6.53
2018-06-10T16:50:23.181Z,7.40
2018-06-10T16:52:51.585Z,7.40
2018-06-10T16:55:20.001Z,7.53
2018-06-10T16:57:48.352Z,7.23
2018-06-10T17:00:16.732Z,7.87
2018-06-10T17:02:45.021Z,7.37
2018-06-10T17:05:13.299Z,7.80
2018-06-10T17:07:41.757Z,7.40
2018-06-10T17:10:10.157Z,7.50
2018-06-10T17:12:38.489Z,6.90
2018-06-10T17:15:06.892Z,7.27
2018-06-10T17:17:35.351Z,7.07
2018-06-10T17:20:03.808Z,7.30
2018-06-10T17:22:32.173Z,7.10
2018-06-10T17:25:00.558Z,7.03
2018-06-10T17:27:28.993Z,7.10
2018-06-10T17:29:57.436Z,7.50
2018-06-10T17:32:25.877Z,7.93
2018-06-10T17:34:54.321Z,7.67
2018-06-10T17:37:22.647Z,7.43
2018-06-10T17:39:51.028Z,7.43
2018-06-10T17:42:19.457Z,7.00
2018-06-10T17:44:47.944Z,6.97
2018-06-10T17:47:16.449Z,8.70
2018-06-10T17:49:44.833Z,7.80
2018-06-10T17:52:13.229Z,8.10
2018-06-10T17:54:41.639Z,7.67
2018-06-10T17:57:10.100Z,7.90
2018-06-10T17:59:39.088Z,9.20
2018-06-10T18:02:07.846Z,7.30
2018-06-10T18:04:36.756Z,7.40
2018-06-10T18:07:05.307Z,7.50
2018-06-10T18:09:33.708Z,7.70
2018-06-10T18:12:02.111Z,7.00
2018-06-10T18:14:30.550Z,7.97
2018-06-10T18:16:58.934Z,7.47
2018-06-10T18:19:27.759Z,8.70
2018-06-10T18:21:56.227Z,8.63
2018-06-10T18:24:24.674Z,7.60
2018-06-10T18:26:53.304Z,8.90
2018-06-10T18:29:21.629Z,8.30
2018-06-10T18:31:50.119Z,9.13
2018-06-10T18:34:18.381Z,10.40
2018-06-10T18:36:46.752Z,9.40
2018-06-10T18:39:15.547Z,8.50
2018-06-10T18:41:44.002Z,8.80
2018-06-10T18:44:12.380Z,8.93
2018-06-10T18:46:40.744Z,9.63
2018-06-10T18:49:09.075Z,9.60
2018-06-10T18:51:37.455Z,10.03
2018-06-10T18:54:06.094Z,8.23
2018-06-10T18:56:34.507Z,9.80
2018-06-10T18:59:03.032Z,9.87
2018-06-10T19:01:31.490Z,9.80
2018-06-10T19:04:00.144Z,9.57
2018-06-10T19:06:28.507Z,8.70
2018-06-10T19:08:56.842Z,9.10
2018-06-10T19:11:25.192Z,9.13
2018-06-10T19:13:53.572Z,9.10
2018-06-10T19:16:22.000Z,9.13
2018-06-10T19:18:50.403Z,9.60
2018-06-10T19:21:18.534Z,9.50
2018-06-10T19:23:46.927Z,10.63
2018-06-10T19:26:15.477Z,10.30
2018-06-10T19:29:46.785Z,10.70
2018-06-10T19:32:15.207Z,9.43
2018-06-10T19:34:43.536Z,9.10
2018-06-10T19:37:11.997Z,9.37
2018-06-10T19:39:40.377Z,9.33
2018-06-10T19:42:08.787Z,9.40
2018-06-10T19:44:37.277Z,9.27
2018-06-10T19:47:06.046Z,9.30
2018-06-10T19:49:34.382Z,8.40
2018-06-10T19:52:03.112Z,9.00
2018-06-10T19:54:31.583Z,8.97
2018-06-10T19:57:00.032Z,8.67
2018-06-10T19:59:28.468Z,9.03
2018-06-10T20:01:57.051Z,9.70
2018-06-10T20:04:25.583Z,9.17
2018-06-10T20:06:54.007Z,9.57
2018-06-10T20:09:22.537Z,9.03
2018-06-10T20:11:50.950Z,9.77
2018-06-10T20:14:19.369Z,10.00
2018-06-10T20:16:47.867Z,9.20
2018-06-10T20:19:16.247Z,9.00
2018-06-10T20:21:44.635Z,9.77
2018-06-10T20:24:13.036Z,8.50
2018-06-10T20:26:41.422Z,10.23
2018-06-10T20:29:09.860Z,8.93
2018-06-10T20:31:38.299Z,10.10
2018-06-10T20:34:06.767Z,9.10
2018-06-10T20:36:35.420Z,10.27
2018-06-10T20:39:05.889Z,9.03
2018-06-10T20:41:34.363Z,10.23
2018-06-10T20:44:02.847Z,9.27
2018-06-10T20:46:31.293Z,10.60
2018-06-10T20:48:59.745Z,9.40
2018-06-10T20:51:28.080Z,9.00
2018-06-10T20:53:59.550Z,10.08
2018-06-10T20:56:28.022Z,10.20
2018-06-10T20:58:56.460Z,9.20
2018-06-10T21:01:24.834Z,9.47
2018-06-10T21:03:53.150Z,9.93
2018-06-10T21:06:21.668Z,9.17
2018-06-10T21:08:50.283Z,9.07
2018-06-10T21:11:18.671Z,9.70
2018-06-10T21:13:47.052Z,10.30
2018-06-10T21:16:15.587Z,9.70
2018-06-10T21:18:44.061Z,8.70
2018-06-10T21:21:12.589Z,9.40
2018-06-10T21:23:41.018Z,9.60
2018-06-10T21:26:09.481Z,8.20
2018-06-10T21:28:37.909Z,9.00
2018-06-10T21:31:06.297Z,9.03
2018-06-10T21:33:34.814Z,9.20
2018-06-10T21:36:03.168Z,10.00
2018-06-10T21:38:31.728Z,10.00
2018-06-10T21:41:00.214Z,10.63
2018-06-10T21:43:28.562Z,10.30
2018-06-10T21:45:57.293Z,9.60
2018-06-10T21:48:26.276Z,9.87
2018-06-10T21:50:54.458Z,9.60
2018-06-10T21:53:22.994Z,9.20
2018-06-10T21:55:51.381Z,9.33
2018-06-10T21:58:19.816Z,9.43
2018-06-10T22:00:48.292Z,8.53
2018-06-10T22:03:16.684Z,9.23
2018-06-10T22:05:45.218Z,9.67
2018-06-10T22:08:13.629Z,9.20
2018-06-10T22:10:42.087Z,9.77
2018-06-10T22:13:10.998Z,9.93
2018-06-10T22:15:39.364Z,9.63
2018-06-10T22:18:07.760Z,9.07
2018-06-10T22:20:39.753Z,10.70
2018-06-10T22:23:08.088Z,10.00
2018-06-10T22:25:36.539Z,10.33
2018-06-10T22:28:04.981Z,10.50
2018-06-10T22:30:33.434Z,10.00
2018-06-10T22:33:01.935Z,10.03
2018-06-10T22:35:30.464Z,9.70
2018-06-10T22:37:58.927Z,9.80
2018-06-10T22:40:27.404Z,9.73
2018-06-10T22:42:55.943Z,10.47
2018-06-10T22:45:24.370Z,10.97
2018-06-10T22:47:52.855Z,9.47
2018-06-10T22:50:21.319Z,8.90
2018-06-10T22:53:01.420Z,9.80
2018-06-10T22:55:29.525Z,10.43
2018-06-10T22:57:58.104Z,9.30
2018-06-10T23:00:26.567Z,9.30
2018-06-10T23:02:54.754Z,9.80
2018-06-10T23:05:23.270Z,9.97
2018-06-10T23:07:51.874Z,10.50
2018-06-10T23:10:20.246Z,9.00
2018-06-10T23:12:48.745Z,9.50
2018-06-10T23:15:17.186Z,9.70
2018-06-10T23:17:45.731Z,9.43
2018-06-10T23:20:14.128Z,9.20
2018-06-10T23:22:42.748Z,8.67
2018-06-10T23:25:11.155Z,9.30
2018-06-10T23:27:39.549Z,9.40
2018-06-10T23:30:07.979Z,9.33
2018-06-10T23:32:36.445Z,9.50
2018-06-10T23:35:04.900Z,9.77
2018-06-10T23:37:33.495Z,9.80
2018-06-10T23:40:02.025Z,9.40
2018-06-10T23:42:30.386Z,9.17
2018-06-10T23:44:58.931Z,9.43
2018-06-10T23:47:27.331Z,9.10
2018-06-10T23:49:55.744Z,9.87
2018-06-10T23:52:24.162Z,9.67
2018-06-10T23:54:52.548Z,9.40
2018-06-10T23:57:21.035Z,10.13
2018-06-10T23:59:49.556Z,9.33
